Paul R Tregurtha — WYR4481 — position and weather

sailwx.info

Track history (hours):
 
Tides and Currents Weather Stations Pressure Air Temp Water Temp Dewpoint Dewpoint Depression Visibility Wind Speed Wind Dir Waves Ship Positions

Paul R Tregurtha

More information available from US FCC via Universal Licensing System and Coast Guard Vessel Documentation Center.

Last reported at 2014-Sep-01 13:00 UTC. Time now 2014-Sep-01 13:37 UTC.
Position N 46°54' W 091°42'.

Length 308 m; draft 8.5 m.

Type: Cargo ship. MMSI: 366904940.

Wind from 280 at 11 knots

Barometer 1003.0 mb
Air temperature 18.1 ° C
Water temperature 17.4 ° C

Date/timePositionNaut miles runAvg speedWind from/ knotsBaromVisibWave heightAir tempDewpointWater temp
2014-Sep-01 13:00N 46°54' W 091°42'1413.7 280 / 111003.0 18.1 17.4
2014-Sep-01 12:00N 46°48' W 092°00'4 2.1 280 / 61002.7 18.9 17.9
2014-Sep-01 10:00N 46°48' W 092°06'6 6.0 230 / 41002.0 19.3 19.5
2014-Sep-01 09:00N 46°42' W 092°06'0 0.0 250 / 31002.0 19.9 20.2
2014-Sep-01 08:00N 46°42' W 092°06'0 0.0 220 / 51002.0 18.3 20.2
2014-Sep-01 07:00N 46°42' W 092°06'0 0.0 260 / 71002.7 18.8 20.2
2014-Sep-01 06:00N 46°42' W 092°06'0 0.0 200 / 51003.0 18.3 20.2
2014-Sep-01 04:00N 46°42' W 092°06'0 0.0 040 / 31003.4 18.7 20.3
2014-Sep-01 02:00N 46°42' W 092°06'31810.2 060 / 111004.1 1.1 0.517.3 20.2
2014-Aug-30 19:00N 46°30' W 084°24'4 4.1 120 / 51008.5 21.5 16.6
2014-Aug-30 18:00N 46°30' W 084°18'7 7.3 160 / 61008.3 19.9 16.3
2014-Aug-30 17:00N 46°24' W 084°12'7 7.3 140 / 71008.6 18.9 16.6
2014-Aug-30 16:00N 46°18' W 084°06'20 9.9 070 / 51008.9 18.3 16.5
2014-Aug-30 14:00N 46°00' W 083°54'1312.7 160 / 91010.3 18.0 16.2
2014-Aug-30 13:00N 45°48' W 083°48'2914.6 140 / 51010.3 16.7 16.3
2014-Aug-30 11:00N 45°24' W 083°24'1010.3 180 / 141011.3 17.6 16.4
2014-Aug-30 10:00N 45°18' W 083°12'1312.7 170 / 161011.6 17.4 16.5
2014-Aug-30 09:00N 45°06' W 083°06'1312.7 180 / 181012.3 18.6 17.8
2014-Aug-30 08:00N 44°54' W 083°00'1818.5 180 / 141013.3 18.4 17.6
2014-Aug-30 07:00N 44°36' W 082°54'7 7.4 200 / 181014.3 19.0 19.2
2014-Aug-30 06:00N 44°30' W 082°48'1918.5 180 / 201015.0 19.7 18.5
2014-Aug-30 05:00N 44°12' W 082°42'1312.8 170 / 201015.7 20.1 19.5
2014-Aug-30 04:00N 44°00' W 082°36'1312.8 170 / 211016.4 21.0 20.4
2014-Aug-30 03:00N 43°48' W 082°30'2412.0 160 / 181016.7 21.6 20.3
2014-Aug-30 01:00N 43°24' W 082°30'1312.8 160 / 141017.7 21.1 20.9
2014-Aug-30 00:00N 43°12' W 082°24'2412.2 150 / 141017.4 21.9 21.1
2014-Aug-29 22:00N 42°48' W 082°30'6 6.0 150 / 111018.8 23.0 21.2
2014-Aug-29 21:00N 42°42' W 082°30'1312.8 180 / 81019.1 22.4 21.3
2014-Aug-29 20:00N 42°30' W 082°36'1110.7 160 / 111018.9 21.4 21.5
2014-Aug-29 19:00N 42°24' W 082°48'1110.7 130 / 101018.9 20.8 23.0
2014-Aug-29 18:00N 42°18' W 083°00'24 8.1 190 / 81019.9 21.6 22.9
2014-Aug-29 15:00N 41°54' W 083°06'9 2.2 120 / 111020.8 19.9 23.8
2014-Aug-29 11:00N 41°54' W 083°18'0 0.0 220 / 111020.1 20.5 26.1
2014-Aug-29 10:00N 41°54' W 083°18'0 0.0 200 / 121019.8 21.0 26.3
2014-Aug-29 08:00N 41°54' W 083°18'0 0.0 220 / 91019.8 20.9 26.3
2014-Aug-29 07:00N 41°54' W 083°18'0 0.0 200 / 81019.8 20.8 26.6
2014-Aug-29 05:00N 41°54' W 083°18'0 0.0 190 / 101020.5 22.0 25.4
2014-Aug-29 04:00N 41°54' W 083°18'0 0.0 220 / 91020.8 21.4 25.4
2014-Aug-29 03:00N 41°54' W 083°18'11 5.4 130 / 81020.5 20.4 24.9
2014-Aug-29 01:00N 42°00' W 083°06'1212.0 070 / 61020.5 19.8 23.7
2014-Aug-29 00:00N 42°12' W 083°06'18 9.0 100 / 51019.9 19.6 23.2
2014-Aug-28 22:00N 42°24' W 082°48'2211.2 050 / 71020.3 20.6 23.1
2014-Aug-28 20:00N 42°42' W 082°30'6 6.0 010 / 101020.8 20.2 21.7
2014-Aug-28 19:00N 42°48' W 082°30'0 0.0 010 / 91021.1 19.5 24.3
2014-Aug-28 18:00N 42°48' W 082°30'0 0.0 250 / 11021.8 20.3 23.9
2014-Aug-28 17:00N 42°48' W 082°30'0 0.0 070 / 31021.8 19.0 24.1
2014-Aug-28 15:00N 42°48' W 082°30'0 0.0 260 / 11022.1 17.6 23.8
2014-Aug-28 14:00N 42°48' W 082°30'0 0.0 040 / 11022.1 16.1 23.8
2014-Aug-28 13:00N 42°48' W 082°30'19 3.7 240 / 11022.5 15.6 23.8
2014-Aug-28 08:00N 43°06' W 082°24'1212.0 320 / 121020.4 16.5 21.2
2014-Aug-28 07:00N 43°18' W 082°24'2412.0 350 / 121020.4 17.1 20.7
2014-Aug-28 05:00N 43°42' W 082°24'5012.4 350 / 121020.8 16.7 20.4
2014-Aug-28 01:00N 44°30' W 082°42'1312.7 350 / 181020.4 17.9 18.9
2014-Aug-28 00:00N 44°42' W 082°48'3310.9 350 / 171020.110.8 2.018.0 17.8
2014-Aug-27 21:00N 45°12' W 083°06'1514.7 310 / 181020.4 18.6 17.9
2014-Aug-27 20:00N 45°24' W 083°18'1514.7 300 / 181020.4 18.1 18.2
2014-Aug-27 19:00N 45°36' W 083°30'1010.3 280 / 171020.4 16.8 16.9
2014-Aug-27 18:00N 45°42' W 083°42'1312.7 280 / 161020.4 16.1 16.5
2014-Aug-27 17:00N 45°54' W 083°48'7 7.3 290 / 121020.8 16.5 17.4
2014-Aug-27 16:00N 46°00' W 083°54'2 1.5 300 / 101021.1 15.2 18.7
2014-Aug-27 14:33N 46°02' W 083°52'0 0.0
2014-Aug-27 13:33N 46°02' W 083°52'2 4.0
2014-Aug-27 13:00N 46°00' W 083°54'2 5.1 300 / 91020.4 13.4 19.3
2014-Aug-27 12:33N 46°02' W 083°52'2 4.1
2014-Aug-27 12:00N 46°00' W 083°54'3 7.3 300 / 131020.4 14.6 18.1
2014-Aug-27 11:31N 46°03' W 083°57'13 9.3
2014-Aug-27 10:06N 46°13' W 084°09'218.4
2014-Aug-27 10:00N 46°12' W 084°12'18 6.2 290 / 61020.1 10.9 16.2
2014-Aug-27 07:00N 46°30' W 084°18'4 4.1 330 / 21019.4 12.8 15.6
2014-Aug-27 06:00N 46°30' W 084°24'0 0.0 270 / 41019.6 13.8 15.3
2014-Aug-27 05:00N 46°30' W 084°24'2 3.6 280 / 41019.3 13.0 14.8
2014-Aug-27 04:18N 46°29' W 084°27'2 7.8
2014-Aug-27 04:00N 46°30' W 084°30'1010.2 330 / 151020.0 13.4 15.3
2014-Aug-27 03:00N 46°36' W 084°42'1010.2 320 / 131020.3 14.2 16.9
2014-Aug-27 02:00N 46°42' W 084°54'2010.2 310 / 101020.0 13.0 15.5
2014-Aug-27 00:00N 46°54' W 085°18'10312.8 320 / 91019.610.8 1.011.9 13.4
2014-Aug-26 16:00N 47°36' W 087°36'1212.1 260 / 181018.3 13.5 11.8
2014-Aug-26 15:00N 47°36' W 087°54'2412.1 270 / 161017.910.8 2.012.8 7.6
2014-Aug-26 13:00N 47°36' W 088°30'1413.5 270 / 181017.310.8 2.013.8 13.9
2014-Aug-26 12:00N 47°30' W 088°48'5811.6 280 / 191017.3 13.9 13.4
2014-Aug-26 07:00N 47°18' W 090°12'2512.6 280 / 201015.6 15.8 15.2
2014-Aug-26 05:00N 47°12' W 090°48'2411.8 290 / 201014.9 16.2 16.0
2014-Aug-26 03:00N 47°00' W 091°18'1413.7 290 / 201014.6 17.7 16.0
2014-Aug-26 02:00N 46°54' W 091°36'1010.2 270 / 171014.610.8 1.018.9 16.3
2014-Aug-26 01:00N 46°48' W 091°48'14 6.9 270 / 121014.6 18.8 17.1
2014-Aug-25 23:00N 46°42' W 092°06'0 0.0 270 / 121013.5 22.4 20.5
2014-Aug-25 22:00N 46°42' W 092°06'0 0.0 270 / 161012.9 23.3 20.5
2014-Aug-25 21:00N 46°42' W 092°06'0 0.0 270 / 171012.5 23.5 20.5
2014-Aug-25 19:00N 46°42' W 092°06'0 0.0 270 / 181012.2 24.3 20.5
2014-Aug-25 18:00N 46°42' W 092°06'0 0.0 340 / 211011.9 24.5 20.1
2014-Aug-25 16:00N 46°42' W 092°06'0 0.0 210 / 161011.5 25.1 20.0
2014-Aug-25 15:00N 46°42' W 092°06'0 0.0 230 / 51011.9 22.5 20.0
2014-Aug-25 14:00N 46°42' W 092°06'0 0.0 230 / 31011.5 18.1 19.9
2014-Aug-25 13:00N 46°42' W 092°06'6 2.0 020 / 41011.9 16.4 20.0
2014-Aug-25 10:00N 46°48' W 092°06'2110.7 210 / 41011.5 17.5 18.9
2014-Aug-25 08:00N 46°54' W 091°36'2512.6 110 / 51011.2 16.4 15.6
2014-Aug-25 06:00N 47°00' W 091°00'10212.8 090 / 81011.2 17.5 16.9
2014-Aug-24 22:00N 47°30' W 088°36'2814.2 140 / 121013.9 20.7 13.1
2014-Aug-24 20:00N 47°30' W 087°54'1212.2 130 / 221015.6 18.9 7.1
2014-Aug-24 19:00N 47°30' W 087°36'10413.0 120 / 161017.3 15.2 12.5
2014-Aug-24 11:00N 46°54' W 085°12'1413.7 120 / 91021.0 2.2 16.2 16.1
2014-Aug-24 10:00N 46°48' W 084°54'2614.2 090 / 81020.7 16.9 16.9
2014-Aug-24 08:09N 46°27' W 084°32'6 5.2
2014-Aug-24 07:00N 46°30' W 084°24'4 4.1 120 / 21021.3 17.8 16.0
2014-Aug-24 06:00N 46°30' W 084°18'0 0.0 120 / 21021.1 17.4 15.9
2014-Aug-24 05:00N 46°30' W 084°18'7 3.6 040 / 21021.1 17.2 16.1
2014-Aug-24 03:00N 46°24' W 084°12'7 7.3 140 / 21020.8 17.8 16.1
2014-Aug-24 02:00N 46°18' W 084°06'1312.7 150 / 21020.4 18.1 16.4
2014-Aug-24 01:00N 46°06' W 084°00'3 6.0 140 / 51020.1 19.6 17.7
2014-Aug-24 00:33N 46°04' W 083°59'5 8.6
2014-Aug-24 00:00N 46°00' W 083°54'4213.9 090 / 61019.8 20.1 18.6
2014-Aug-23 21:00N 45°24' W 083°24'1514.7 150 / 71020.1 17.5 18.8
2014-Aug-23 20:00N 45°12' W 083°12'1312.7 090 / 51020.4 17.5 19.3
2014-Aug-23 19:00N 45°00' W 083°06'2512.7 200 / 31020.1 17.7 19.2
2014-Aug-23 17:00N 44°36' W 082°54'5112.7 140 / 61019.4 16.5 19.3
2014-Aug-23 13:00N 43°48' W 082°30'1212.0 340 / 81017.7 17.3 20.1
2014-Aug-23 12:00N 43°36' W 082°30'1212.0 350 / 111017.4 17.6 20.6
2014-Aug-23 11:00N 43°24' W 082°30'1918.5 1017.4 18.5 20.7
2014-Aug-23 10:00N 43°06' W 082°24'6 6.0 040 / 51016.7 18.5 21.1
2014-Aug-23 09:00N 43°00' W 082°24'1312.8 050 / 61016.7 18.4 21.0
2014-Aug-23 08:00N 42°48' W 082°30'6 6.0 220 / 51016.4 18.5 21.2
2014-Aug-23 07:00N 42°42' W 082°30'2211.2 010 / 51016.0 18.2 21.3
2014-Aug-23 05:00N 42°24' W 082°48'1110.7 1017.2 19.7 23.1
2014-Aug-23 04:00N 42°18' W 083°00'4 2.2 060 / 71016.9 20.9 23.5
2014-Aug-23 02:00N 42°18' W 083°06'0 0.0 060 / 71016.5 23.2 23.7
2014-Aug-23 01:00N 42°18' W 083°06'0 0.0 050 / 71015.5 23.2 23.6
2014-Aug-23 00:00N 42°18' W 083°06'26 5.1 060 / 91015.5 23.8 23.1
2014-Aug-22 19:00N 41°54' W 083°18'0 0.0 150 / 71014.7 28.5 24.3
2014-Aug-22 18:00N 41°54' W 083°18'0 0.0 170 / 61015.1 27.4 24.5
2014-Aug-22 17:00N 41°54' W 083°18'0 0.0 170 / 61015.4 26.7 24.6
2014-Aug-22 16:00N 41°54' W 083°18'0 0.0 180 / 51015.7 26.6 23.5
2014-Aug-22 14:00N 41°54' W 083°18'0 0.0 160 / 51015.7 24.9 23.5
2014-Aug-22 13:00N 41°54' W 083°18'   020 / 31015.7 23.5 23.5
Track history (hours):
 
Tides and Currents Weather Stations Pressure Air Temp Water Temp Dewpoint Dewpoint Depression Visibility Wind Speed Wind Dir Waves Ship Positions

Paul R Tregurtha

More information available from US FCC via Universal Licensing System and Coast Guard Vessel Documentation Center.

Last reported at 2014-Sep-01 13:00 UTC. Time now 2014-Sep-01 13:37 UTC.
Position N 46°54' W 091°42'.

Length 308 m; draft 8.5 m.

Type: Cargo ship. MMSI: 366904940.

Wind from 280 at 11 knots

Barometer 1003.0 mb
Air temperature 18.1 ° C
Water temperature 17.4 ° C

Date/timePositionNaut miles runAvg speedWind from/ knotsBaromVisibWave heightAir tempDewpointWater temp
2014-Sep-01 13:00N 46°54' W 091°42'1413.7 280 / 111003.0 18.1 17.4
2014-Sep-01 12:00N 46°48' W 092°00'4 2.1 280 / 61002.7 18.9 17.9
2014-Sep-01 10:00N 46°48' W 092°06'6 6.0 230 / 41002.0 19.3 19.5
2014-Sep-01 09:00N 46°42' W 092°06'0 0.0 250 / 31002.0 19.9 20.2
2014-Sep-01 08:00N 46°42' W 092°06'0 0.0 220 / 51002.0 18.3 20.2
2014-Sep-01 07:00N 46°42' W 092°06'0 0.0 260 / 71002.7 18.8 20.2
2014-Sep-01 06:00N 46°42' W 092°06'0 0.0 200 / 51003.0 18.3 20.2
2014-Sep-01 04:00N 46°42' W 092°06'0 0.0 040 / 31003.4 18.7 20.3
2014-Sep-01 02:00N 46°42' W 092°06'31810.2 060 / 111004.1 1.1 0.517.3 20.2
2014-Aug-30 19:00N 46°30' W 084°24'4 4.1 120 / 51008.5 21.5 16.6
2014-Aug-30 18:00N 46°30' W 084°18'7 7.3 160 / 61008.3 19.9 16.3
2014-Aug-30 17:00N 46°24' W 084°12'7 7.3 140 / 71008.6 18.9 16.6
2014-Aug-30 16:00N 46°18' W 084°06'20 9.9 070 / 51008.9 18.3 16.5
2014-Aug-30 14:00N 46°00' W 083°54'1312.7 160 / 91010.3 18.0 16.2
2014-Aug-30 13:00N 45°48' W 083°48'2914.6 140 / 51010.3 16.7 16.3
2014-Aug-30 11:00N 45°24' W 083°24'1010.3 180 / 141011.3 17.6 16.4
2014-Aug-30 10:00N 45°18' W 083°12'1312.7 170 / 161011.6 17.4 16.5
2014-Aug-30 09:00N 45°06' W 083°06'1312.7 180 / 181012.3 18.6 17.8
2014-Aug-30 08:00N 44°54' W 083°00'1818.5 180 / 141013.3 18.4 17.6
2014-Aug-30 07:00N 44°36' W 082°54'7 7.4 200 / 181014.3 19.0 19.2
2014-Aug-30 06:00N 44°30' W 082°48'1918.5 180 / 201015.0 19.7 18.5
2014-Aug-30 05:00N 44°12' W 082°42'1312.8 170 / 201015.7 20.1 19.5
2014-Aug-30 04:00N 44°00' W 082°36'1312.8 170 / 211016.4 21.0 20.4
2014-Aug-30 03:00N 43°48' W 082°30'2412.0 160 / 181016.7 21.6 20.3
2014-Aug-30 01:00N 43°24' W 082°30'1312.8 160 / 141017.7 21.1 20.9
2014-Aug-30 00:00N 43°12' W 082°24'2412.2 150 / 141017.4 21.9 21.1
2014-Aug-29 22:00N 42°48' W 082°30'6 6.0 150 / 111018.8 23.0 21.2
2014-Aug-29 21:00N 42°42' W 082°30'1312.8 180 / 81019.1 22.4 21.3
2014-Aug-29 20:00N 42°30' W 082°36'1110.7 160 / 111018.9 21.4 21.5
2014-Aug-29 19:00N 42°24' W 082°48'1110.7 130 / 101018.9 20.8 23.0
2014-Aug-29 18:00N 42°18' W 083°00'24 8.1 190 / 81019.9 21.6 22.9
2014-Aug-29 15:00N 41°54' W 083°06'9 2.2 120 / 111020.8 19.9 23.8
2014-Aug-29 11:00N 41°54' W 083°18'0 0.0 220 / 111020.1 20.5 26.1
2014-Aug-29 10:00N 41°54' W 083°18'0 0.0 200 / 121019.8 21.0 26.3
2014-Aug-29 08:00N 41°54' W 083°18'0 0.0 220 / 91019.8 20.9 26.3
2014-Aug-29 07:00N 41°54' W 083°18'0 0.0 200 / 81019.8 20.8 26.6
2014-Aug-29 05:00N 41°54' W 083°18'0 0.0 190 / 101020.5 22.0 25.4
2014-Aug-29 04:00N 41°54' W 083°18'0 0.0 220 / 91020.8 21.4 25.4
2014-Aug-29 03:00N 41°54' W 083°18'11 5.4 130 / 81020.5 20.4 24.9
2014-Aug-29 01:00N 42°00' W 083°06'1212.0 070 / 61020.5 19.8 23.7
2014-Aug-29 00:00N 42°12' W 083°06'18 9.0 100 / 51019.9 19.6 23.2
2014-Aug-28 22:00N 42°24' W 082°48'2211.2 050 / 71020.3 20.6 23.1
2014-Aug-28 20:00N 42°42' W 082°30'6 6.0 010 / 101020.8 20.2 21.7
2014-Aug-28 19:00N 42°48' W 082°30'0 0.0 010 / 91021.1 19.5 24.3
2014-Aug-28 18:00N 42°48' W 082°30'0 0.0 250 / 11021.8 20.3 23.9
2014-Aug-28 17:00N 42°48' W 082°30'0 0.0 070 / 31021.8 19.0 24.1
2014-Aug-28 15:00N 42°48' W 082°30'0 0.0 260 / 11022.1 17.6 23.8
2014-Aug-28 14:00N 42°48' W 082°30'0 0.0 040 / 11022.1 16.1 23.8
2014-Aug-28 13:00N 42°48' W 082°30'19 3.7 240 / 11022.5 15.6 23.8
2014-Aug-28 08:00N 43°06' W 082°24'1212.0 320 / 121020.4 16.5 21.2
2014-Aug-28 07:00N 43°18' W 082°24'2412.0 350 / 121020.4 17.1 20.7
2014-Aug-28 05:00N 43°42' W 082°24'5012.4 350 / 121020.8 16.7 20.4
2014-Aug-28 01:00N 44°30' W 082°42'1312.7 350 / 181020.4 17.9 18.9
2014-Aug-28 00:00N 44°42' W 082°48'3310.9 350 / 171020.110.8 2.018.0 17.8
2014-Aug-27 21:00N 45°12' W 083°06'1514.7 310 / 181020.4 18.6 17.9
2014-Aug-27 20:00N 45°24' W 083°18'1514.7 300 / 181020.4 18.1 18.2
2014-Aug-27 19:00N 45°36' W 083°30'1010.3 280 / 171020.4 16.8 16.9
2014-Aug-27 18:00N 45°42' W 083°42'1312.7 280 / 161020.4 16.1 16.5
2014-Aug-27 17:00N 45°54' W 083°48'7 7.3 290 / 121020.8 16.5 17.4
2014-Aug-27 16:00N 46°00' W 083°54'2 1.5 300 / 101021.1 15.2 18.7
2014-Aug-27 14:33N 46°02' W 083°52'0 0.0
2014-Aug-27 13:33N 46°02' W 083°52'2 4.0
2014-Aug-27 13:00N 46°00' W 083°54'2 5.1 300 / 91020.4 13.4 19.3
2014-Aug-27 12:33N 46°02' W 083°52'2 4.1
2014-Aug-27 12:00N 46°00' W 083°54'3 7.3 300 / 131020.4 14.6 18.1
2014-Aug-27 11:31N 46°03' W 083°57'13 9.3
2014-Aug-27 10:06N 46°13' W 084°09'218.4
2014-Aug-27 10:00N 46°12' W 084°12'18 6.2 290 / 61020.1 10.9 16.2
2014-Aug-27 07:00N 46°30' W 084°18'4 4.1 330 / 21019.4 12.8 15.6
2014-Aug-27 06:00N 46°30' W 084°24'0 0.0 270 / 41019.6 13.8 15.3
2014-Aug-27 05:00N 46°30' W 084°24'2 3.6 280 / 41019.3 13.0 14.8
2014-Aug-27 04:18N 46°29' W 084°27'2 7.8
2014-Aug-27 04:00N 46°30' W 084°30'1010.2 330 / 151020.0 13.4 15.3
2014-Aug-27 03:00N 46°36' W 084°42'1010.2 320 / 131020.3 14.2 16.9
2014-Aug-27 02:00N 46°42' W 084°54'2010.2 310 / 101020.0 13.0 15.5
2014-Aug-27 00:00N 46°54' W 085°18'10312.8 320 / 91019.610.8 1.011.9 13.4
2014-Aug-26 16:00N 47°36' W 087°36'1212.1 260 / 181018.3 13.5 11.8
2014-Aug-26 15:00N 47°36' W 087°54'2412.1 270 / 161017.910.8 2.012.8 7.6
2014-Aug-26 13:00N 47°36' W 088°30'1413.5 270 / 181017.310.8 2.013.8 13.9
2014-Aug-26 12:00N 47°30' W 088°48'5811.6 280 / 191017.3 13.9 13.4
2014-Aug-26 07:00N 47°18' W 090°12'2512.6 280 / 201015.6 15.8 15.2
2014-Aug-26 05:00N 47°12' W 090°48'2411.8 290 / 201014.9 16.2 16.0
2014-Aug-26 03:00N 47°00' W 091°18'1413.7 290 / 201014.6 17.7 16.0
2014-Aug-26 02:00N 46°54' W 091°36'1010.2 270 / 171014.610.8 1.018.9 16.3
2014-Aug-26 01:00N 46°48' W 091°48'14 6.9 270 / 121014.6 18.8 17.1
2014-Aug-25 23:00N 46°42' W 092°06'0 0.0 270 / 121013.5 22.4 20.5
2014-Aug-25 22:00N 46°42' W 092°06'0 0.0 270 / 161012.9 23.3 20.5
2014-Aug-25 21:00N 46°42' W 092°06'0 0.0 270 / 171012.5 23.5 20.5
2014-Aug-25 19:00N 46°42' W 092°06'0 0.0 270 / 181012.2 24.3 20.5
2014-Aug-25 18:00N 46°42' W 092°06'0 0.0 340 / 211011.9 24.5 20.1
2014-Aug-25 16:00N 46°42' W 092°06'0 0.0 210 / 161011.5 25.1 20.0
2014-Aug-25 15:00N 46°42' W 092°06'0 0.0 230 / 51011.9 22.5 20.0
2014-Aug-25 14:00N 46°42' W 092°06'0 0.0 230 / 31011.5 18.1 19.9
2014-Aug-25 13:00N 46°42' W 092°06'6 2.0 020 / 41011.9 16.4 20.0
2014-Aug-25 10:00N 46°48' W 092°06'2110.7 210 / 41011.5 17.5 18.9
2014-Aug-25 08:00N 46°54' W 091°36'2512.6 110 / 51011.2 16.4 15.6
2014-Aug-25 06:00N 47°00' W 091°00'10212.8 090 / 81011.2 17.5 16.9
2014-Aug-24 22:00N 47°30' W 088°36'2814.2 140 / 121013.9 20.7 13.1
2014-Aug-24 20:00N 47°30' W 087°54'1212.2 130 / 221015.6 18.9 7.1
2014-Aug-24 19:00N 47°30' W 087°36'10413.0 120 / 161017.3 15.2 12.5
2014-Aug-24 11:00N 46°54' W 085°12'1413.7 120 / 91021.0 2.2 16.2 16.1
2014-Aug-24 10:00N 46°48' W 084°54'2614.2 090 / 81020.7 16.9 16.9
2014-Aug-24 08:09N 46°27' W 084°32'6 5.2
2014-Aug-24 07:00N 46°30' W 084°24'4 4.1 120 / 21021.3 17.8 16.0
2014-Aug-24 06:00N 46°30' W 084°18'0 0.0 120 / 21021.1 17.4 15.9
2014-Aug-24 05:00N 46°30' W 084°18'7 3.6 040 / 21021.1 17.2 16.1
2014-Aug-24 03:00N 46°24' W 084°12'7 7.3 140 / 21020.8 17.8 16.1
2014-Aug-24 02:00N 46°18' W 084°06'1312.7 150 / 21020.4 18.1 16.4
2014-Aug-24 01:00N 46°06' W 084°00'3 6.0 140 / 51020.1 19.6 17.7
2014-Aug-24 00:33N 46°04' W 083°59'5 8.6
2014-Aug-24 00:00N 46°00' W 083°54'4213.9 090 / 61019.8 20.1 18.6
2014-Aug-23 21:00N 45°24' W 083°24'1514.7 150 / 71020.1 17.5 18.8
2014-Aug-23 20:00N 45°12' W 083°12'1312.7 090 / 51020.4 17.5 19.3
2014-Aug-23 19:00N 45°00' W 083°06'2512.7 200 / 31020.1 17.7 19.2
2014-Aug-23 17:00N 44°36' W 082°54'5112.7 140 / 61019.4 16.5 19.3
2014-Aug-23 13:00N 43°48' W 082°30'1212.0 340 / 81017.7 17.3 20.1
2014-Aug-23 12:00N 43°36' W 082°30'1212.0 350 / 111017.4 17.6 20.6
2014-Aug-23 11:00N 43°24' W 082°30'1918.5 1017.4 18.5 20.7
2014-Aug-23 10:00N 43°06' W 082°24'6 6.0 040 / 51016.7 18.5 21.1
2014-Aug-23 09:00N 43°00' W 082°24'1312.8 050 / 61016.7 18.4 21.0
2014-Aug-23 08:00N 42°48' W 082°30'6 6.0 220 / 51016.4 18.5 21.2
2014-Aug-23 07:00N 42°42' W 082°30'2211.2 010 / 51016.0 18.2 21.3
2014-Aug-23 05:00N 42°24' W 082°48'1110.7 1017.2 19.7 23.1
2014-Aug-23 04:00N 42°18' W 083°00'4 2.2 060 / 71016.9 20.9 23.5
2014-Aug-23 02:00N 42°18' W 083°06'0 0.0 060 / 71016.5 23.2 23.7
2014-Aug-23 01:00N 42°18' W 083°06'0 0.0 050 / 71015.5 23.2 23.6
2014-Aug-23 00:00N 42°18' W 083°06'26 5.1 060 / 91015.5 23.8 23.1
2014-Aug-22 19:00N 41°54' W 083°18'0 0.0 150 / 71014.7 28.5 24.3
2014-Aug-22 18:00N 41°54' W 083°18'0 0.0 170 / 61015.1 27.4 24.5
2014-Aug-22 17:00N 41°54' W 083°18'0 0.0 170 / 61015.4 26.7 24.6
2014-Aug-22 16:00N 41°54' W 083°18'0 0.0 180 / 51015.7 26.6 23.5
2014-Aug-22 14:00N 41°54' W 083°18'0 0.0 160 / 51015.7 24.9 23.5
2014-Aug-22 13:00N 41°54' W 083°18'   020 / 31015.7 23.5 23.5

Dump ship's entire track history